RYV weather

Public forecast

Using degrees Fahrenheit for public forecast. Weather courtesy of forecast.io.

Current aviation weather report (METAR) for Watertown Municipal Airport

Retrieved 2020/08/13 22:35 UTC (18 minutes ago):

KRYV 132235Z AUTO 13007KT 10SM CLR 28/14 A3007 RMK AO2 T02770143

Closest aviation forecast (TAF) to Watertown Municipal Airport

Closest forecast is Waukesha County Airport, 22.7 nm (42.0 km) ESE. Retrieved 2020/08/13 18:22 UTC (5 hours ago):

TAF KUES 131720Z 1318/1418 11010KT P6SM FEW250 FM140400 VRB03KT P6SM FEW250 FM141500 09005KT P6SM SKC